createdAt,value
2023-04-19T00:01:39.752Z,73.04
2023-04-19T00:06:46.504Z,74.61
2023-04-19T00:11:52.030Z,75.34
2023-04-19T00:16:57.549Z,75.77
2023-04-19T00:22:03.155Z,76.45
2023-04-19T00:27:09.310Z,77.03
2023-04-19T00:32:16.570Z,77.07
2023-04-19T00:37:22.161Z,78.12
2023-04-19T00:42:28.119Z,78.68
2023-04-19T00:47:34.281Z,79.78
2023-04-19T00:52:40.322Z,81.28
2023-04-19T00:57:46.552Z,82.58
2023-04-19T01:02:52.488Z,83.79
2023-04-19T01:07:58.402Z,84.83
2023-04-19T01:13:03.850Z,86.08
2023-04-19T01:18:09.356Z,87.44
2023-04-19T01:23:14.901Z,88.79
2023-04-19T01:28:20.274Z,89.91
2023-04-19T01:33:28.432Z,90.69
2023-04-19T01:38:35.062Z,91.84
2023-04-19T01:43:40.622Z,92.67
2023-04-19T01:48:47.649Z,93.00
2023-04-19T01:53:54.600Z,93.65
2023-04-19T01:59:01.854Z,94.23
2023-04-19T02:04:08.733Z,94.73
2023-04-19T02:09:14.472Z,95.19
2023-04-19T02:14:20.999Z,95.94
2023-04-19T02:19:26.633Z,96.69
2023-04-19T02:24:32.264Z,97.37
2023-04-19T02:29:37.870Z,97.69
2023-04-19T02:34:43.353Z,98.02
2023-04-19T02:39:48.815Z,98.51
2023-04-19T02:44:54.433Z,99.10
2023-04-19T02:50:03.200Z,99.85
2023-04-19T02:55:11.513Z,99.99
2023-04-19T03:00:18.747Z,100.00
2023-04-19T03:05:34.051Z,100.00
2023-04-19T03:10:39.718Z,100.00
2023-04-19T03:15:45.247Z,100.00
2023-04-19T03:20:50.785Z,100.00
2023-04-19T03:25:57.218Z,100.00
2023-04-19T03:31:15.780Z,100.00
2023-04-19T03:36:21.923Z,100.00
2023-04-19T03:41:28.724Z,100.00
2023-04-19T03:46:59.956Z,100.00
2023-04-19T03:52:07.055Z,100.00
2023-04-19T03:57:15.597Z,100.00
2023-04-19T04:02:21.526Z,100.00
2023-04-19T04:07:27.281Z,100.00
2023-04-19T04:12:33.567Z,100.00
2023-04-19T04:17:39.748Z,100.00
2023-04-19T04:22:47.420Z,100.00
2023-04-19T04:27:56.585Z,100.00
2023-04-19T04:33:03.513Z,100.00
2023-04-19T04:38:21.365Z,100.00
2023-04-19T04:43:33.642Z,100.00
2023-04-19T04:48:39.117Z,100.00
2023-04-19T04:53:44.830Z,100.00
2023-04-19T04:58:50.997Z,100.00
2023-04-19T05:04:05.725Z,100.00
2023-04-19T05:09:11.986Z,100.00
2023-04-19T05:14:18.377Z,100.00
2023-04-19T05:19:24.089Z,100.00
2023-04-19T05:24:34.916Z,100.00
2023-04-19T05:29:41.523Z,100.00
2023-04-19T05:34:47.208Z,100.00
2023-04-19T05:39:53.863Z,100.00
2023-04-19T05:44:59.528Z,100.00
2023-04-19T05:50:07.831Z,100.00
2023-04-19T05:55:18.301Z,100.00
2023-04-19T06:00:24.427Z,100.00
2023-04-19T06:05:34.097Z,100.00
2023-04-19T06:10:54.141Z,100.00
2023-04-19T06:16:03.129Z,100.00
2023-04-19T06:21:09.292Z,100.00
2023-04-19T06:26:15.085Z,100.00
2023-04-19T06:31:20.750Z,100.00
2023-04-19T06:36:26.925Z,100.00
2023-04-19T06:41:33.553Z,100.00
2023-04-19T06:46:39.438Z,100.00
2023-04-19T06:51:45.544Z,100.00
2023-04-19T06:56:51.455Z,97.17
2023-04-19T07:01:58.208Z,89.61
2023-04-19T07:07:04.194Z,90.29
2023-04-19T07:12:09.829Z,90.39
2023-04-19T07:17:15.613Z,91.00
2023-04-19T07:22:22.264Z,92.44
2023-04-19T07:27:27.807Z,93.40
2023-04-19T07:32:33.664Z,94.73
2023-04-19T07:37:39.248Z,95.00
2023-04-19T07:42:44.858Z,95.39
2023-04-19T07:47:50.889Z,96.49
2023-04-19T07:52:56.856Z,93.94
2023-04-19T07:58:02.862Z,92.05
2023-04-19T08:03:09.442Z,90.73
2023-04-19T08:08:16.118Z,90.31
2023-04-19T08:13:21.729Z,89.18
2023-04-19T08:18:27.369Z,89.23
2023-04-19T08:23:45.051Z,88.97
2023-04-19T08:28:53.702Z,88.47
2023-04-19T08:34:00.543Z,88.56
2023-04-19T08:39:12.242Z,87.12
2023-04-19T08:44:34.991Z,82.42
2023-04-19T08:49:43.446Z,81.28
2023-04-19T08:54:49.830Z,80.86
2023-04-19T08:59:55.802Z,80.20
2023-04-19T09:05:01.477Z,80.90
2023-04-19T09:10:09.762Z,81.69
2023-04-19T09:15:15.835Z,81.54
2023-04-19T09:20:37.751Z,81.18
2023-04-19T09:31:30.291Z,80.54
2023-04-19T09:36:42.428Z,80.71
2023-04-19T09:41:55.002Z,81.51
2023-04-19T09:47:00.897Z,81.50
2023-04-19T09:52:07.353Z,82.54
2023-04-19T09:57:13.630Z,83.17
2023-04-19T10:02:20.739Z,83.40
2023-04-19T10:07:30.883Z,83.80
2023-04-19T10:12:52.368Z,83.63
2023-04-19T10:18:03.519Z,84.41
2023-04-19T10:23:10.712Z,84.69
2023-04-19T10:28:17.222Z,84.77
2023-04-19T10:33:28.799Z,85.02
2023-04-19T10:38:40.088Z,85.07
2023-04-19T10:43:48.771Z,84.92
2023-04-19T10:48:57.736Z,84.14
2023-04-19T10:54:04.437Z,84.01
2023-04-19T10:59:22.256Z,82.98
2023-04-19T11:04:55.022Z,83.45
2023-04-19T11:10:00.452Z,84.04
2023-04-19T11:15:09.963Z,82.04
2023-04-19T11:20:15.783Z,80.72
2023-04-19T11:25:22.610Z,78.78
2023-04-19T11:30:32.271Z,76.70
2023-04-19T11:35:38.398Z,74.61
2023-04-19T11:40:44.318Z,73.60
2023-04-19T11:45:49.862Z,70.99
2023-04-19T11:51:00.168Z,69.17
2023-04-19T11:56:08.843Z,69.08
2023-04-19T12:01:16.072Z,66.57
2023-04-19T12:06:25.743Z,64.42
2023-04-19T12:11:44.846Z,63.08
2023-04-19T12:17:07.997Z,62.83
2023-04-19T12:22:15.934Z,61.32
2023-04-19T12:27:21.519Z,61.70
2023-04-19T12:32:27.275Z,62.29
2023-04-19T12:37:33.184Z,63.62
2023-04-19T12:42:38.790Z,64.78
2023-04-19T12:47:45.894Z,65.67
2023-04-19T12:52:53.575Z,67.59
2023-04-19T12:57:59.408Z,66.34
2023-04-19T13:03:05.562Z,65.66
2023-04-19T13:08:11.662Z,64.83
2023-04-19T13:13:17.333Z,65.58
2023-04-19T13:18:23.563Z,67.11
2023-04-19T13:23:29.225Z,66.28
2023-04-19T13:28:35.996Z,64.91
2023-04-19T13:33:42.015Z,63.86
2023-04-19T13:38:48.532Z,63.54
2023-04-19T13:43:55.231Z,63.90
2023-04-19T13:49:03.450Z,63.70
2023-04-19T13:54:10.085Z,64.05
2023-04-19T13:59:16.257Z,63.85
2023-04-19T14:04:22.453Z,63.19
2023-04-19T14:09:28.603Z,64.13
2023-04-19T14:14:34.962Z,63.95
2023-04-19T14:19:41.513Z,64.41
2023-04-19T14:24:47.428Z,62.29
2023-04-19T14:29:52.879Z,62.64
2023-04-19T14:34:58.846Z,61.91
2023-04-19T14:40:05.080Z,61.66
2023-04-19T14:45:12.016Z,61.11
2023-04-19T14:50:17.597Z,61.21
2023-04-19T14:55:25.122Z,61.21
2023-04-19T15:00:31.206Z,61.25
2023-04-19T15:05:37.326Z,60.86
2023-04-19T15:10:42.743Z,60.69
2023-04-19T15:15:48.623Z,64.01
2023-04-19T15:20:54.157Z,69.72
2023-04-19T15:25:59.721Z,74.51
2023-04-19T15:31:07.554Z,77.59
2023-04-19T15:36:13.302Z,79.56
2023-04-19T15:41:19.001Z,81.17
2023-04-19T15:46:24.598Z,82.69
2023-04-19T15:51:31.648Z,84.84
2023-04-19T15:56:37.151Z,86.67
2023-04-19T16:01:42.660Z,86.78
2023-04-19T16:06:48.162Z,88.29
2023-04-19T16:11:53.781Z,89.82
2023-04-19T16:17:00.690Z,89.82
2023-04-19T16:22:06.099Z,90.87
2023-04-19T16:27:11.541Z,91.66
2023-04-19T16:32:17.032Z,92.18
2023-04-19T16:37:22.757Z,92.19
2023-04-19T16:42:28.144Z,92.99
2023-04-19T16:47:34.893Z,93.19
2023-04-19T16:52:40.673Z,93.62
2023-04-19T16:57:46.086Z,94.64
2023-04-19T17:02:53.297Z,95.55
2023-04-19T17:07:59.001Z,96.55
2023-04-19T17:13:04.593Z,97.19
2023-04-19T17:18:10.157Z,97.72
2023-04-19T17:23:16.001Z,97.47
2023-04-19T17:28:21.644Z,97.60
2023-04-19T17:33:27.277Z,97.82
2023-04-19T17:38:34.526Z,98.35
2023-04-19T17:43:40.092Z,98.50
2023-04-19T17:48:45.690Z,98.84
2023-04-19T17:53:51.510Z,99.11
2023-04-19T17:58:56.995Z,99.85
2023-04-19T18:04:03.427Z,100.00
2023-04-19T18:09:09.339Z,100.00
2023-04-19T18:14:17.641Z,100.00
2023-04-19T18:19:24.164Z,100.00
2023-04-19T18:24:30.628Z,100.00
2023-04-19T18:29:36.316Z,100.00
2023-04-19T18:34:42.869Z,100.00
2023-04-19T18:39:49.122Z,100.00
2023-04-19T18:44:55.372Z,100.00
2023-04-19T18:50:05.793Z,100.00
2023-04-19T18:55:12.386Z,99.90
2023-04-19T19:00:19.933Z,99.83
2023-04-19T19:05:25.836Z,99.61
2023-04-19T19:11:06.711Z,98.81
2023-04-19T19:15:57.575Z,97.22
2023-04-19T19:21:03.584Z,95.67
2023-04-19T19:26:11.287Z,94.97
2023-04-19T19:31:17.121Z,94.28
2023-04-19T19:36:22.818Z,93.61
2023-04-19T19:42:03.497Z,93.09
2023-04-19T19:46:56.739Z,93.08
2023-04-19T19:52:02.577Z,93.16
2023-04-19T19:58:01.581Z,92.97
2023-04-19T20:02:34.867Z,95.12
2023-04-19T20:08:00.559Z,96.97
2023-04-19T20:13:07.232Z,97.58
2023-04-19T20:18:13.041Z,98.17
2023-04-19T20:23:21.625Z,99.06
2023-04-19T20:28:27.216Z,99.60
2023-04-19T20:33:33.802Z,100.00
2023-04-19T20:38:39.853Z,100.00
2023-04-19T20:43:45.416Z,100.00
2023-04-19T20:48:50.998Z,100.00
2023-04-19T20:53:56.548Z,100.00
2023-04-19T20:59:02.030Z,100.00
2023-04-19T21:04:08.797Z,100.00
2023-04-19T21:09:14.671Z,100.00
2023-04-19T21:14:20.373Z,100.00
2023-04-19T21:19:26.537Z,100.00
2023-04-19T21:24:32.173Z,100.00
2023-04-19T21:29:37.729Z,100.00
2023-04-19T21:34:43.534Z,100.00
2023-04-19T21:39:49.455Z,100.00
2023-04-19T21:44:56.684Z,100.00
2023-04-19T21:50:03.151Z,100.00
2023-04-19T21:55:09.894Z,99.98
2023-04-19T22:00:18.287Z,99.35
2023-04-19T22:05:23.801Z,99.03
2023-04-19T22:10:31.481Z,98.93
2023-04-19T22:15:38.350Z,98.78
2023-04-19T22:20:44.343Z,98.91
2023-04-19T22:25:49.937Z,99.07
2023-04-19T22:30:55.797Z,99.41
2023-04-19T22:36:01.290Z,99.28
2023-04-19T22:41:07.071Z,99.31
2023-04-19T22:46:13.361Z,99.43
2023-04-19T22:51:19.059Z,99.71
2023-04-19T22:56:24.632Z,99.61
2023-04-19T23:01:30.431Z,99.98
2023-04-19T23:06:36.970Z,99.99
2023-04-19T23:11:42.647Z,99.85
2023-04-19T23:16:48.492Z,99.78
2023-04-19T23:21:54.226Z,99.09
2023-04-19T23:27:00.160Z,98.61
2023-04-19T23:32:05.889Z,98.50
2023-04-19T23:37:12.211Z,98.77
2023-04-19T23:42:17.765Z,98.59
2023-04-19T23:47:23.400Z,98.44
2023-04-19T23:52:29.217Z,98.69
2023-04-19T23:57:36.462Z,99.05
